createdAt,value
2018-11-10T00:00:50.552Z,10.63
2018-11-10T00:03:19.064Z,10.27
2018-11-10T00:05:47.574Z,12.97
2018-11-10T00:08:16.060Z,10.30
2018-11-10T00:10:44.447Z,10.43
2018-11-10T00:13:12.853Z,10.50
2018-11-10T00:15:41.257Z,11.70
2018-11-10T00:18:09.707Z,11.13
2018-11-10T00:20:38.196Z,10.63
2018-11-10T00:23:06.730Z,10.70
2018-11-10T00:25:35.126Z,11.80
2018-11-10T00:28:03.548Z,12.80
2018-11-10T00:30:32.016Z,11.60
2018-11-10T00:33:00.515Z,12.30
2018-11-10T00:35:28.982Z,12.60
2018-11-10T00:37:57.493Z,11.10
2018-11-10T00:40:25.962Z,11.70
2018-11-10T00:42:54.466Z,11.20
2018-11-10T00:45:22.956Z,12.20
2018-11-10T00:47:51.416Z,11.60
2018-11-10T00:50:19.919Z,12.80
2018-11-10T00:52:48.425Z,12.87
2018-11-10T00:55:18.734Z,12.77
2018-11-10T00:57:49.252Z,12.20
2018-11-10T01:00:17.701Z,12.40
2018-11-10T01:02:46.219Z,12.50
2018-11-10T01:05:14.622Z,12.70
2018-11-10T01:07:43.138Z,11.90
2018-11-10T01:10:12.989Z,11.80
2018-11-10T01:12:41.635Z,10.63
2018-11-10T01:15:12.465Z,12.00
2018-11-10T01:17:41.670Z,12.97
2018-11-10T01:20:11.276Z,11.87
2018-11-10T01:22:39.829Z,13.10
2018-11-10T01:25:09.562Z,12.70
2018-11-10T01:27:38.147Z,12.60
2018-11-10T01:30:10.451Z,12.87
2018-11-10T01:32:38.892Z,12.87
2018-11-10T01:35:07.386Z,13.20
2018-11-10T01:37:36.136Z,13.30
2018-11-10T01:40:06.281Z,11.73
2018-11-10T01:42:35.725Z,13.50
2018-11-10T01:45:04.179Z,13.00
2018-11-10T01:47:32.780Z,12.90
2018-11-10T01:50:01.230Z,12.60
2018-11-10T01:52:29.693Z,13.53
2018-11-10T01:54:58.093Z,12.20
2018-11-10T01:57:26.584Z,12.60
2018-11-10T01:59:54.978Z,12.53
2018-11-10T02:02:23.385Z,12.40
2018-11-10T02:04:51.991Z,12.40
2018-11-10T02:07:20.496Z,14.80
2018-11-10T02:09:48.939Z,14.27
2018-11-10T02:12:17.356Z,12.40
2018-11-10T02:14:45.833Z,13.40
2018-11-10T02:17:14.238Z,13.87
2018-11-10T02:19:42.813Z,13.40
2018-11-10T02:22:11.292Z,12.83
2018-11-10T02:24:39.757Z,12.80
2018-11-10T02:27:13.520Z,13.30
2018-11-10T02:29:42.026Z,13.30
2018-11-10T02:32:10.531Z,12.03
2018-11-10T02:34:38.933Z,12.20
2018-11-10T02:37:07.395Z,11.23
2018-11-10T02:39:35.875Z,11.53
2018-11-10T02:42:04.313Z,11.40
2018-11-10T02:44:32.791Z,11.27
2018-11-10T02:47:01.213Z,11.83
2018-11-10T02:49:29.693Z,12.10
2018-11-10T02:51:58.164Z,12.13
2018-11-10T02:54:26.597Z,10.20
2018-11-10T02:56:55.406Z,11.67
2018-11-10T02:59:24.215Z,10.87
2018-11-10T03:01:52.694Z,10.90
2018-11-10T03:04:21.197Z,9.50
2018-11-10T03:06:49.652Z,10.73
2018-11-10T03:09:18.052Z,10.27
2018-11-10T03:11:46.481Z,9.20
2018-11-10T03:14:14.945Z,10.83
2018-11-10T03:16:43.389Z,10.00
2018-11-10T03:19:11.799Z,10.53
2018-11-10T03:21:40.222Z,10.20
2018-11-10T03:24:08.655Z,10.03
2018-11-10T03:26:37.069Z,9.20
2018-11-10T03:29:05.911Z,9.70
2018-11-10T03:31:34.331Z,8.43
2018-11-10T03:34:02.805Z,8.10
2018-11-10T03:36:31.325Z,9.00
2018-11-10T03:38:59.749Z,7.70
2018-11-10T03:41:28.136Z,7.97
2018-11-10T03:43:56.629Z,8.43
2018-11-10T03:46:26.308Z,8.60
2018-11-10T03:48:55.130Z,7.80
2018-11-10T03:51:23.472Z,7.27
2018-11-10T03:53:51.937Z,7.43
2018-11-10T03:56:20.436Z,7.40
2018-11-10T03:58:48.816Z,6.63
2018-11-10T04:01:17.282Z,6.30
2018-11-10T04:03:45.655Z,6.20
2018-11-10T04:06:14.183Z,6.37
2018-11-10T04:08:42.595Z,6.90
2018-11-10T04:11:11.030Z,6.60
2018-11-10T04:13:39.476Z,5.43
2018-11-10T04:16:07.858Z,6.50
2018-11-10T04:18:36.364Z,5.53
2018-11-10T04:21:04.823Z,6.30
2018-11-10T04:23:33.230Z,5.60
2018-11-10T04:26:01.659Z,5.83
2018-11-10T04:28:30.077Z,6.00
2018-11-10T04:30:58.471Z,6.63
2018-11-10T04:33:26.886Z,6.57
2018-11-10T04:35:55.283Z,6.70
2018-11-10T04:38:23.718Z,6.27
2018-11-10T04:40:52.208Z,5.97
2018-11-10T04:43:20.654Z,6.17
2018-11-10T04:45:49.057Z,5.80
2018-11-10T04:48:17.523Z,6.73
2018-11-10T04:50:45.932Z,6.53
2018-11-10T04:53:14.383Z,5.90
2018-11-10T04:55:42.809Z,5.80
2018-11-10T04:58:11.253Z,5.90
2018-11-10T05:00:39.681Z,5.63
2018-11-10T05:03:08.128Z,6.40
2018-11-10T05:05:36.516Z,6.40
2018-11-10T05:08:05.137Z,6.40
2018-11-10T05:10:33.581Z,5.43
2018-11-10T05:13:01.998Z,6.00
2018-11-10T05:15:30.391Z,6.40
2018-11-10T05:17:58.843Z,6.20
2018-11-10T05:20:27.294Z,6.00
2018-11-10T05:22:55.703Z,6.47
2018-11-10T05:25:24.172Z,6.80
2018-11-10T05:27:52.603Z,7.47
2018-11-10T05:30:21.102Z,6.33
2018-11-10T05:32:49.493Z,8.43
2018-11-10T05:35:17.921Z,6.80
2018-11-10T05:37:46.376Z,7.77
2018-11-10T05:40:14.763Z,7.90
2018-11-10T05:42:43.254Z,8.03
2018-11-10T05:45:11.668Z,8.07
2018-11-10T05:47:40.173Z,7.50
2018-11-10T05:50:09.298Z,7.73
2018-11-10T05:52:37.722Z,8.60
2018-11-10T05:55:07.503Z,8.33
2018-11-10T05:57:35.986Z,8.37
2018-11-10T06:00:06.151Z,8.30
2018-11-10T06:02:34.581Z,7.80
2018-11-10T06:05:03.040Z,7.97
2018-11-10T06:07:31.483Z,10.13
2018-11-10T06:09:59.965Z,8.00
2018-11-10T06:12:29.067Z,7.90
2018-11-10T06:14:57.523Z,7.73
2018-11-10T06:17:25.957Z,8.50
2018-11-10T06:19:54.386Z,8.07
2018-11-10T06:22:22.801Z,8.87
2018-11-10T06:24:51.305Z,7.50
2018-11-10T06:27:19.707Z,7.87
2018-11-10T06:29:48.116Z,8.67
2018-11-10T06:32:16.597Z,8.20
2018-11-10T06:34:45.025Z,9.47
2018-11-10T06:37:13.426Z,9.13
2018-11-10T06:39:41.873Z,8.30
2018-11-10T06:42:10.256Z,8.83
2018-11-10T06:44:38.747Z,8.00
2018-11-10T06:47:07.302Z,8.57
2018-11-10T06:49:35.687Z,7.90
2018-11-10T06:52:05.037Z,7.97
2018-11-10T06:54:33.452Z,8.50
2018-11-10T06:57:01.874Z,7.30
2018-11-10T06:59:30.291Z,8.20
2018-11-10T07:01:58.743Z,8.00
2018-11-10T07:04:27.175Z,14.57
2018-11-10T07:06:55.613Z,8.03
2018-11-10T07:09:24.096Z,8.97
2018-11-10T07:11:52.483Z,9.47
2018-11-10T07:14:20.898Z,8.60
2018-11-10T07:16:49.377Z,8.27
2018-11-10T07:19:17.803Z,8.53
2018-11-10T07:21:46.224Z,8.33
2018-11-10T07:24:14.586Z,8.60
2018-11-10T07:26:43.046Z,8.10
2018-11-10T07:29:11.530Z,8.77
2018-11-10T07:31:40.049Z,10.33
2018-11-10T07:34:08.452Z,7.70
2018-11-10T07:36:36.889Z,9.10
2018-11-10T07:39:08.077Z,9.20
2018-11-10T07:44:22.739Z,8.03
2018-11-10T07:46:51.143Z,8.23
2018-11-10T07:49:19.728Z,7.70
2018-11-10T07:51:48.740Z,6.40
2018-11-10T07:54:17.188Z,13.10
2018-11-10T07:56:45.752Z,7.90
2018-11-10T07:59:14.176Z,6.87
2018-11-10T08:01:42.605Z,6.90
2018-11-10T08:04:10.991Z,6.13
2018-11-10T08:06:39.417Z,6.10
2018-11-10T08:09:09.193Z,7.33
2018-11-10T08:11:37.704Z,7.43
2018-11-10T08:14:06.394Z,6.87
2018-11-10T08:16:35.084Z,6.93
2018-11-10T08:19:03.545Z,6.60
2018-11-10T08:21:32.067Z,6.43
2018-11-10T08:24:00.590Z,6.70
2018-11-10T08:26:29.004Z,6.60
2018-11-10T08:28:57.424Z,10.30
2018-11-10T08:31:25.925Z,6.70
2018-11-10T08:33:54.313Z,5.90
2018-11-10T08:36:22.756Z,5.53
2018-11-10T08:38:51.176Z,5.63
2018-11-10T08:41:19.554Z,5.57
2018-11-10T08:43:48.129Z,5.73
2018-11-10T08:46:16.595Z,6.00
2018-11-10T08:48:45.031Z,5.87
2018-11-10T08:51:13.501Z,5.30
2018-11-10T08:53:41.930Z,5.50
2018-11-10T08:56:10.419Z,5.80
2018-11-10T08:58:38.793Z,5.33
2018-11-10T09:01:07.315Z,5.13
2018-11-10T09:03:35.752Z,5.33
2018-11-10T09:06:03.107Z,5.57
2018-11-10T09:08:31.552Z,5.40
2018-11-10T09:11:00.093Z,6.40
2018-11-10T09:13:28.533Z,5.90
2018-11-10T09:15:56.974Z,5.43
2018-11-10T09:18:25.436Z,4.70
2018-11-10T09:20:53.941Z,5.10
2018-11-10T09:23:22.395Z,5.20
2018-11-10T09:25:50.841Z,4.70
2018-11-10T09:28:19.300Z,4.70
2018-11-10T09:30:47.789Z,4.50
2018-11-10T09:33:16.236Z,4.43
2018-11-10T09:35:44.632Z,4.43
2018-11-10T09:38:13.057Z,4.77
2018-11-10T09:40:41.483Z,5.10
2018-11-10T09:43:09.900Z,5.03
2018-11-10T09:45:38.385Z,3.80
2018-11-10T09:48:06.840Z,4.10
2018-11-10T09:50:35.315Z,4.10
2018-11-10T09:53:03.742Z,4.63
2018-11-10T09:55:32.201Z,3.47
2018-11-10T09:58:00.660Z,4.33
2018-11-10T10:00:29.195Z,4.50
2018-11-10T10:02:57.677Z,3.73
2018-11-10T10:05:26.092Z,3.90
2018-11-10T10:07:54.550Z,3.80
2018-11-10T10:10:22.997Z,3.97
2018-11-10T10:12:51.465Z,3.30
2018-11-10T10:15:20.091Z,3.60
2018-11-10T10:17:48.707Z,4.07
2018-11-10T10:20:18.277Z,3.57
2018-11-10T10:22:47.640Z,4.23
2018-11-10T10:25:16.816Z,3.57
2018-11-10T10:27:46.072Z,3.77
2018-11-10T10:30:18.721Z,3.47
2018-11-10T10:32:47.999Z,3.33
2018-11-10T10:35:16.789Z,3.50
2018-11-10T10:37:46.301Z,7.00
2018-11-10T10:40:15.228Z,6.33
2018-11-10T10:42:44.553Z,4.30
2018-11-10T10:45:14.381Z,4.00
2018-11-10T10:47:43.218Z,3.57
2018-11-10T10:50:14.113Z,4.30
2018-11-10T10:52:42.621Z,4.20
2018-11-10T10:55:12.716Z,3.17
2018-11-10T10:57:41.557Z,4.03
2018-11-10T11:00:17.249Z,3.67
2018-11-10T11:02:50.950Z,3.80
2018-11-10T11:06:23.128Z,4.23
2018-11-10T11:08:51.836Z,4.47
2018-11-10T11:11:20.248Z,4.70
2018-11-10T11:13:48.754Z,4.20
2018-11-10T11:16:17.167Z,5.13
2018-11-10T11:18:45.623Z,5.30
2018-11-10T11:21:14.062Z,4.10
2018-11-10T11:23:42.536Z,4.30
2018-11-10T11:26:11.026Z,4.30
2018-11-10T11:28:39.554Z,5.70
2018-11-10T11:31:08.007Z,4.50
2018-11-10T11:33:36.477Z,5.10
2018-11-10T11:36:04.938Z,4.70
2018-11-10T11:38:33.349Z,5.40
2018-11-10T11:41:01.779Z,6.10
2018-11-10T11:43:30.168Z,4.50
2018-11-10T11:45:58.618Z,5.17
2018-11-10T11:48:27.072Z,5.23
2018-11-10T11:50:55.518Z,5.00
2018-11-10T11:53:23.984Z,5.80
2018-11-10T11:55:52.482Z,4.97
2018-11-10T11:58:21.092Z,4.77
2018-11-10T12:00:49.381Z,5.40
2018-11-10T12:03:17.893Z,5.30
2018-11-10T12:05:46.345Z,6.13
2018-11-10T12:08:14.770Z,5.80
2018-11-10T12:10:44.452Z,6.20
2018-11-10T12:13:12.910Z,6.30
2018-11-10T12:15:41.352Z,5.63
2018-11-10T12:18:09.785Z,6.40
2018-11-10T12:20:38.581Z,5.33
2018-11-10T12:23:06.988Z,5.90
2018-11-10T12:25:35.401Z,5.97
2018-11-10T12:28:04.747Z,5.47
2018-11-10T12:30:33.222Z,5.90
2018-11-10T12:33:01.661Z,5.87
2018-11-10T12:35:30.145Z,12.57
2018-11-10T12:37:58.566Z,24.63
2018-11-10T12:40:27.017Z,6.67
2018-11-10T12:42:56.300Z,5.10
2018-11-10T12:45:24.730Z,6.03
2018-11-10T12:47:53.152Z,6.23
2018-11-10T12:50:21.620Z,5.97
2018-11-10T12:52:50.085Z,5.73
2018-11-10T12:55:18.580Z,5.97
2018-11-10T12:57:47.378Z,5.37
2018-11-10T13:00:17.072Z,5.80
2018-11-10T13:02:45.925Z,5.97
2018-11-10T13:05:14.482Z,5.53
2018-11-10T13:07:44.468Z,7.00
2018-11-10T13:10:12.993Z,6.33
2018-11-10T13:12:42.075Z,6.50
2018-11-10T13:15:10.924Z,6.60
2018-11-10T13:17:39.742Z,6.13
2018-11-10T13:20:10.986Z,5.87
2018-11-10T13:22:39.402Z,5.20
2018-11-10T13:25:08.645Z,5.80
2018-11-10T13:27:37.110Z,4.83
2018-11-10T13:30:06.437Z,5.00
2018-11-10T13:32:34.887Z,4.57
2018-11-10T13:35:03.422Z,4.03
2018-11-10T13:37:31.941Z,5.00
2018-11-10T13:40:00.407Z,4.10
2018-11-10T13:42:28.955Z,4.23
2018-11-10T13:44:57.380Z,4.20
2018-11-10T13:47:25.881Z,4.40
2018-11-10T13:49:54.365Z,4.30
2018-11-10T13:52:23.150Z,4.30
2018-11-10T13:54:51.275Z,3.47
2018-11-10T13:57:19.880Z,3.70
2018-11-10T13:59:48.351Z,3.50
2018-11-10T14:02:16.867Z,3.47
2018-11-10T14:04:45.306Z,3.87
2018-11-10T14:07:13.780Z,3.80
2018-11-10T14:09:42.184Z,3.90
2018-11-10T14:12:10.613Z,3.73
2018-11-10T14:14:39.079Z,4.37
2018-11-10T14:17:07.532Z,3.83
2018-11-10T14:19:36.112Z,4.17
2018-11-10T14:22:04.597Z,4.50
2018-11-10T14:24:33.070Z,3.90
2018-11-10T14:27:02.970Z,3.73
2018-11-10T14:29:32.166Z,3.80
2018-11-10T14:32:00.626Z,4.03
2018-11-10T14:34:29.131Z,4.60
2018-11-10T14:36:58.289Z,4.17
2018-11-10T14:39:26.769Z,3.83
2018-11-10T14:41:55.285Z,3.67
2018-11-10T14:44:23.715Z,4.87
2018-11-10T14:46:52.153Z,3.33
2018-11-10T14:49:22.245Z,5.97
2018-11-10T14:51:50.727Z,4.87
2018-11-10T14:54:19.218Z,5.60
2018-11-10T14:56:48.809Z,3.70
2018-11-10T14:59:18.982Z,4.03
2018-11-10T15:01:47.471Z,4.00
2018-11-10T15:04:15.899Z,3.67
2018-11-10T15:06:44.355Z,3.73
2018-11-10T15:09:12.794Z,3.83
2018-11-10T15:11:41.244Z,5.40
2018-11-10T15:14:09.704Z,4.70
2018-11-10T15:16:39.168Z,4.70
2018-11-10T15:19:08.082Z,3.73
2018-11-10T15:21:36.501Z,3.47
2018-11-10T15:24:05.686Z,3.93
2018-11-10T15:26:34.088Z,3.77
2018-11-10T15:29:02.546Z,3.73
2018-11-10T15:31:31.015Z,4.10
2018-11-10T15:33:59.400Z,3.10
2018-11-10T15:36:27.821Z,3.67
2018-11-10T15:38:56.247Z,3.57
2018-11-10T15:41:24.664Z,3.80
2018-11-10T15:43:53.081Z,3.90
2018-11-10T15:46:21.618Z,3.50
2018-11-10T15:48:50.141Z,2.80
2018-11-10T15:51:18.563Z,3.30
2018-11-10T15:53:46.999Z,3.57
2018-11-10T15:56:15.480Z,3.20
2018-11-10T15:58:43.923Z,3.70
2018-11-10T16:01:12.398Z,2.93
2018-11-10T16:03:40.888Z,3.00
2018-11-10T16:06:09.329Z,3.27
2018-11-10T16:08:37.779Z,3.00
2018-11-10T16:11:06.263Z,3.07
2018-11-10T16:13:34.652Z,3.20
2018-11-10T16:16:03.143Z,2.60
2018-11-10T16:18:31.606Z,3.57
2018-11-10T16:21:00.205Z,5.33
2018-11-10T16:23:28.569Z,2.67
2018-11-10T16:25:57.097Z,2.17
2018-11-10T16:28:25.547Z,2.63
2018-11-10T16:30:53.997Z,2.43
2018-11-10T16:33:22.473Z,2.37
2018-11-10T16:35:50.968Z,2.20
2018-11-10T16:38:19.428Z,2.80
2018-11-10T16:40:47.878Z,2.30
2018-11-10T16:43:16.325Z,2.20
2018-11-10T16:45:44.770Z,8.23
2018-11-10T16:48:13.245Z,7.00
2018-11-10T16:50:41.629Z,7.93
2018-11-10T16:53:10.130Z,4.73
2018-11-10T16:55:38.554Z,13.23
2018-11-10T16:58:07.083Z,4.17
2018-11-10T17:00:35.587Z,3.10
2018-11-10T17:03:04.140Z,2.67
2018-11-10T17:05:32.650Z,2.97
2018-11-10T17:08:01.076Z,2.53
2018-11-10T17:10:29.571Z,3.00
2018-11-10T17:12:57.992Z,2.67
2018-11-10T17:15:26.483Z,2.50
2018-11-10T17:17:54.935Z,2.70
2018-11-10T17:20:23.362Z,3.13
2018-11-10T17:22:51.832Z,2.50
2018-11-10T17:25:20.260Z,3.00
2018-11-10T17:27:48.734Z,2.47
2018-11-10T17:30:18.872Z,3.10
2018-11-10T17:32:47.300Z,2.93
2018-11-10T17:35:16.535Z,7.23
2018-11-10T17:37:45.404Z,7.70
2018-11-10T17:40:14.763Z,4.17
2018-11-10T17:42:43.228Z,3.47
2018-11-10T17:45:13.086Z,3.87
2018-11-10T17:47:42.172Z,4.23
2018-11-10T17:50:11.933Z,3.33
2018-11-10T17:52:40.544Z,3.10
2018-11-10T17:55:10.355Z,2.80
2018-11-10T17:57:38.872Z,2.70
2018-11-10T18:00:07.381Z,2.60
2018-11-10T18:02:35.820Z,2.43
2018-11-10T18:05:04.433Z,2.70
2018-11-10T18:07:32.869Z,3.20
2018-11-10T18:10:01.305Z,2.20
2018-11-10T18:12:29.772Z,2.60
2018-11-10T18:14:58.233Z,2.70
2018-11-10T18:17:26.909Z,2.20
2018-11-10T18:19:55.345Z,2.50
2018-11-10T18:22:23.791Z,3.87
2018-11-10T18:24:52.231Z,3.03
2018-11-10T18:27:20.666Z,2.70
2018-11-10T18:29:49.168Z,3.40
2018-11-10T18:32:17.688Z,3.10
2018-11-10T18:34:46.089Z,3.30
2018-11-10T18:37:14.564Z,2.93
2018-11-10T18:39:43.018Z,2.73
2018-11-10T18:42:11.539Z,3.00
2018-11-10T18:44:40.003Z,2.90
2018-11-10T18:47:08.579Z,9.00
2018-11-10T18:49:37.002Z,4.53
2018-11-10T18:52:05.643Z,4.13
2018-11-10T18:54:34.040Z,4.77
2018-11-10T18:57:02.726Z,4.07
2018-11-10T18:59:32.064Z,3.30
2018-11-10T19:02:02.993Z,3.40
2018-11-10T19:04:31.555Z,3.50
2018-11-10T19:06:59.991Z,3.70
2018-11-10T19:09:33.111Z,3.30
2018-11-10T19:12:01.492Z,3.97
2018-11-10T19:14:29.934Z,4.27
2018-11-10T19:16:58.398Z,4.17
2018-11-10T19:19:26.830Z,4.20
2018-11-10T19:21:55.295Z,8.87
2018-11-10T19:24:23.674Z,3.93
2018-11-10T19:26:52.115Z,3.80
2018-11-10T19:29:20.596Z,3.70
2018-11-10T19:31:49.100Z,4.07
2018-11-10T19:34:17.507Z,3.80
2018-11-10T19:36:45.990Z,5.40
2018-11-10T19:39:14.409Z,5.17
2018-11-10T19:41:42.905Z,5.23
2018-11-10T19:44:11.379Z,4.10
2018-11-10T19:46:40.717Z,3.97
2018-11-10T19:49:09.545Z,4.10
2018-11-10T19:51:38.323Z,4.50
2018-11-10T19:54:06.514Z,4.53
2018-11-10T19:56:34.995Z,3.97
2018-11-10T19:59:03.423Z,3.83
2018-11-10T20:01:31.876Z,4.37
2018-11-10T20:04:00.368Z,5.23
2018-11-10T20:06:28.883Z,7.33
2018-11-10T20:08:57.384Z,5.20
2018-11-10T20:11:25.822Z,4.30
2018-11-10T20:13:54.277Z,5.20
2018-11-10T20:16:22.670Z,5.60
2018-11-10T20:18:51.101Z,5.37
2018-11-10T20:21:19.573Z,11.80
2018-11-10T20:23:48.115Z,5.73
2018-11-10T20:26:16.584Z,6.60
2018-11-10T20:28:45.045Z,6.70
2018-11-10T20:31:13.801Z,6.60
2018-11-10T20:33:42.219Z,6.03
2018-11-10T20:36:10.661Z,5.37
2018-11-10T20:38:39.189Z,6.43
2018-11-10T20:41:08.002Z,6.63
2018-11-10T20:43:36.486Z,7.17
2018-11-10T20:46:05.356Z,6.00
2018-11-10T20:48:33.833Z,6.63
2018-11-10T20:51:02.441Z,5.87
2018-11-10T20:53:31.102Z,5.10
2018-11-10T20:55:59.570Z,5.47
2018-11-10T20:58:28.031Z,6.03
2018-11-10T21:00:56.542Z,6.40
2018-11-10T21:03:25.012Z,5.77
2018-11-10T21:05:53.508Z,5.80
2018-11-10T21:08:22.191Z,5.57
2018-11-10T21:10:50.638Z,5.60
2018-11-10T21:13:19.285Z,5.07
2018-11-10T21:15:47.740Z,4.63
2018-11-10T21:18:16.212Z,5.63
2018-11-10T21:20:44.648Z,13.77
2018-11-10T21:23:13.055Z,6.10
2018-11-10T21:25:41.546Z,5.20
2018-11-10T21:28:10.065Z,6.77
2018-11-10T21:30:38.447Z,6.27
2018-11-10T21:33:06.922Z,10.37
2018-11-10T21:35:35.546Z,6.80
2018-11-10T21:38:03.792Z,5.53
2018-11-10T21:40:32.216Z,5.40
2018-11-10T21:43:00.730Z,5.87
2018-11-10T21:45:29.163Z,5.70
2018-11-10T21:47:57.609Z,7.07
2018-11-10T21:50:26.081Z,6.20
2018-11-10T21:52:54.528Z,6.03
2018-11-10T21:55:22.997Z,5.40
2018-11-10T21:57:51.466Z,5.67
2018-11-10T22:00:21.340Z,6.00
2018-11-10T22:02:50.200Z,5.40
2018-11-10T22:05:19.185Z,5.33
2018-11-10T22:07:47.645Z,5.13
2018-11-10T22:10:17.253Z,4.60
2018-11-10T22:12:46.061Z,6.30
2018-11-10T22:15:16.008Z,4.77
2018-11-10T22:17:45.203Z,4.77
2018-11-10T22:20:14.876Z,4.40
2018-11-10T22:22:43.377Z,5.07
2018-11-10T22:25:12.437Z,5.40
2018-11-10T22:27:43.100Z,4.87
2018-11-10T22:30:13.843Z,5.20
2018-11-10T22:32:42.876Z,4.47
2018-11-10T22:35:11.518Z,4.40
2018-11-10T22:37:40.101Z,5.00
2018-11-10T22:40:10.816Z,5.23
2018-11-10T22:42:39.813Z,5.53
2018-11-10T22:45:09.810Z,5.80
2018-11-10T22:47:38.962Z,4.10
2018-11-10T22:50:09.566Z,4.00
2018-11-10T22:52:38.108Z,4.23
2018-11-10T22:55:07.096Z,3.80
2018-11-10T22:57:36.264Z,4.10
2018-11-10T23:00:07.480Z,3.30
2018-11-10T23:02:36.044Z,3.63
2018-11-10T23:05:05.665Z,3.70
2018-11-10T23:07:34.066Z,3.57
2018-11-10T23:10:02.505Z,3.90
2018-11-10T23:12:30.931Z,3.80
2018-11-10T23:14:59.365Z,4.27
2018-11-10T23:17:27.825Z,4.10
2018-11-10T23:19:56.305Z,4.67
2018-11-10T23:22:24.713Z,4.10
2018-11-10T23:24:53.212Z,3.90
2018-11-10T23:27:21.617Z,3.07
2018-11-10T23:29:50.131Z,3.30
2018-11-10T23:32:18.668Z,3.53
2018-11-10T23:34:47.058Z,3.43
2018-11-10T23:37:16.140Z,2.83
2018-11-10T23:39:44.634Z,3.07
2018-11-10T23:42:13.060Z,2.77
2018-11-10T23:44:41.449Z,2.80
2018-11-10T23:47:09.932Z,2.53
2018-11-10T23:49:38.524Z,2.40
2018-11-10T23:52:06.982Z,2.80
2018-11-10T23:54:35.483Z,2.63
2018-11-10T23:57:03.878Z,2.20
2018-11-10T23:59:32.653Z,2.40
